Time;durP1;ratioP1;P1;durP2;ratioP2;P2;SDS_P1;SDS_P2;PMS_P1;PMS_P2;Temp;Humidity;BMP_temperature;BMP_pressure;BME280_temperature;BME280_humidity;BME280_pressure;Samples;Min_cycle;Max_cycle;Signal;HPM_P1;HPM_P2
2024/03/13 00:00:10;;;;;;;14.55;6.85;;;9.00;99.90;;;;;;5023555;28;20053;-81
2024/03/13 00:02:37;;;;;;;18.52;7.07;;;9.00;99.90;;;;;;5026273;28;20053;-83
2024/03/13 00:05:04;;;;;;;16.15;6.15;;;9.00;99.90;;;;;;5025519;28;20049;-81
2024/03/13 00:07:31;;;;;;;14.23;6.22;;;9.00;99.90;;;;;;5024305;28;20458;-81
2024/03/13 00:09:57;;;;;;;14.20;5.82;;;;;;;;;;5023914;28;20018;-82
2024/03/13 00:12:28;;;;;;;14.10;5.70;;;9.00;99.90;;;;;;5024985;28;20387;-82
2024/03/13 00:14:56;;;;;;;13.20;6.53;;;;;;;;;;5023837;28;20022;-82
2024/03/13 00:17:22;;;;;;;12.70;5.95;;;9.10;99.90;;;;;;5023995;28;20033;-82
2024/03/13 00:19:55;;;;;;;10.75;5.18;;;9.10;99.90;;;;;;5025198;28;20029;-82
2024/03/13 00:22:22;;;;;;;12.63;5.95;;;9.10;99.90;;;;;;5024132;28;20026;-82
2024/03/13 00:24:49;;;;;;;11.18;5.15;;;9.10;99.90;;;;;;5024782;28;20028;-81
2024/03/13 00:27:15;;;;;;;13.52;5.60;;;;;;;;;;5024712;28;20029;-82
2024/03/13 00:29:42;;;;;;;15.90;6.35;;;9.10;99.90;;;;;;5023114;28;20025;-81
2024/03/13 00:32:07;;;;;;;14.60;6.75;;;9.10;99.90;;;;;;5024374;28;20026;-82
2024/03/13 00:34:36;;;;;;;13.20;6.10;;;;;;;;;;5023444;28;20057;-82
2024/03/13 00:37:03;;;;;;;11.07;5.78;;;9.10;99.90;;;;;;5023223;28;20501;-82
2024/03/13 00:39:29;;;;;;;12.85;5.85;;;;;;;;;;5022397;28;20021;-82
2024/03/13 00:41:55;;;;;;;12.52;5.47;;;;;;;;;;5023537;28;20033;-83
2024/03/13 00:44:22;;;;;;;11.18;5.53;;;;;;;;;;5022396;28;20076;-82
2024/03/13 00:46:48;;;;;;;10.98;4.88;;;;;;;;;;5023363;28;20022;-81
2024/03/13 00:49:15;;;;;;;11.52;5.18;;;9.20;99.90;;;;;;5024089;28;20046;-81
2024/03/13 00:51:41;;;;;;;11.35;5.53;;;;;;;;;;5023140;28;20026;-82
2024/03/13 00:54:08;;;;;;;11.23;5.32;;;9.20;99.90;;;;;;5022971;28;20026;-82
2024/03/13 00:56:33;;;;;;;13.55;5.28;;;9.30;99.90;;;;;;5022754;28;20032;-82
2024/03/13 00:59:00;;;;;;;10.05;4.95;;;9.30;99.90;;;;;;5023042;28;20022;-81
2024/03/13 01:01:26;;;;;;;10.90;4.90;;;9.30;99.90;;;;;;5022679;28;20033;-82
2024/03/13 01:03:58;;;;;;;15.13;5.45;;;;;;;;;;5023065;28;20477;-82
2024/03/13 01:06:29;;;;;;;11.75;5.10;;;9.30;99.90;;;;;;5022926;28;20029;-80
2024/03/13 01:08:56;;;;;;;13.05;5.00;;;9.40;99.90;;;;;;5022604;28;20022;-82
2024/03/13 01:11:22;;;;;;;15.43;6.22;;;9.40;99.90;;;;;;5023089;28;20006;-81
2024/03/13 01:13:47;;;;;;;18.23;6.18;;;9.40;99.90;;;;;;5021876;28;20036;-80
2024/03/13 01:16:13;;;;;;;27.13;6.35;;;9.30;99.90;;;;;;5022284;28;20057;-80
2024/03/13 01:18:45;;;;;;;30.02;8.40;;;9.40;99.90;;;;;;5020382;28;20029;-84
2024/03/13 01:21:11;;;;;;;23.33;7.38;;;;;;;;;;5014694;28;20030;-76
2024/03/13 01:23:40;;;;;;;26.58;7.38;;;9.50;99.90;;;;;;5015547;28;20402;-76
2024/03/13 01:26:08;;;;;;;31.25;8.55;;;9.50;99.90;;;;;;5015861;28;20033;-76
2024/03/13 01:28:35;;;;;;;31.27;8.75;;;9.50;99.90;;;;;;5015420;28;20494;-77
2024/03/13 01:31:01;;;;;;;29.05;8.23;;;;;;;;;;5013871;28;20109;-77
2024/03/13 01:33:28;;;;;;;39.25;8.65;;;9.50;99.90;;;;;;5013838;28;20485;-77
2024/03/13 01:35:55;;;;;;;29.35;7.40;;;9.50;99.90;;;;;;5015545;28;20022;-77
2024/03/13 01:38:21;;;;;;;32.00;9.68;;;9.50;99.90;;;;;;5013360;28;20029;-77
2024/03/13 01:55:11;;;;;;;42.72;8.90;;;9.60;99.90;;;;;;5015150;28;20041;-77
2024/03/13 02:03:15;;;;;;;48.97;11.30;;;9.70;99.90;;;;;;5015223;28;20092;-77
2024/03/13 02:05:45;;;;;;;55.85;11.07;;;9.70;99.90;;;;;;5013425;28;20032;-77
2024/03/13 02:08:14;;;;;;;50.13;11.57;;;9.70;99.90;;;;;;5013188;28;20034;-77
2024/03/13 02:10:40;;;;;;;49.08;9.90;;;9.70;99.90;;;;;;5014911;28;20022;-77
2024/03/13 02:13:13;;;;;;;72.53;11.60;;;9.70;99.90;;;;;;5014348;28;20045;-77
2024/03/13 02:15:41;;;;;;;46.50;10.07;;;9.80;99.90;;;;;;5014937;28;20033;-77
2024/03/13 02:18:16;;;;;;;47.10;11.13;;;9.80;99.90;;;;;;5013501;28;20049;-77
2024/03/13 02:20:43;;;;;;;47.25;10.15;;;9.80;99.90;;;;;;5013048;28;20109;-77
2024/03/13 02:23:09;;;;;;;39.97;10.23;;;9.80;99.90;;;;;;5013348;28;20014;-77
2024/03/13 02:25:35;;;;;;;52.13;10.70;;;9.90;99.90;;;;;;5013195;28;20425;-77
2024/03/13 02:28:02;;;;;;;47.05;10.48;;;9.90;99.90;;;;;;5014550;28;20033;-77
2024/03/13 02:30:27;;;;;;;44.80;11.88;;;9.90;99.90;;;;;;5013309;28;20038;-77
2024/03/13 02:32:55;;;;;;;40.83;10.88;;;9.90;99.90;;;;;;5012942;28;20033;-77
2024/03/13 02:35:21;;;;;;;31.30;10.18;;;9.90;99.90;;;;;;5014417;28;20034;-77
2024/03/13 02:37:46;;;;;;;42.10;9.50;;;9.90;99.90;;;;;;5014447;28;20022;-77
2024/03/13 02:40:16;;;;;;;46.88;9.77;;;10.00;99.90;;;;;;5014444;28;20026;-77
2024/03/13 02:42:46;;;;;;;35.55;9.90;;;10.00;99.90;;;;;;5014437;28;20014;-77
2024/03/13 02:45:13;;;;;;;33.35;9.27;;;10.00;99.90;;;;;;5012842;28;20028;-77
2024/03/13 02:47:40;;;;;;;27.17;9.05;;;10.00;99.90;;;;;;5012904;28;20084;-77
2024/03/13 02:50:11;;;;;;;33.45;9.73;;;10.00;99.90;;;;;;5013876;28;20116;-77
2024/03/13 02:52:40;;;;;;;33.15;8.77;;;10.00;99.90;;;;;;5014032;28;20064;-77
2024/03/13 02:55:06;;;;;;;;;;;10.00;99.90;;;;;;5012970;28;20398;-77
2024/03/13 02:57:33;;;;;;;28.05;7.68;;;10.00;99.90;;;;;;5014519;28;19910;-77
2024/03/13 02:59:58;;;;;;;25.20;8.55;;;10.10;99.90;;;;;;5013811;28;20018;-77
2024/03/13 03:02:24;;;;;;;31.70;9.98;;;10.10;99.90;;;;;;5012715;28;20077;-77
2024/03/13 03:04:50;;;;;;;22.42;7.85;;;10.10;99.90;;;;;;5013070;28;20113;-77
2024/03/13 03:07:16;;;;;;;22.98;7.93;;;10.10;99.90;;;;;;5015252;28;20026;-78
2024/03/13 03:09:42;;;;;;;16.30;7.10;;;10.20;99.90;;;;;;5017196;28;20032;-77
2024/03/13 03:12:09;;;;;;;21.67;7.68;;;10.10;99.90;;;;;;5017933;28;20030;-77
2024/03/13 03:14:41;;;;;;;18.30;6.43;;;10.20;99.90;;;;;;5016595;28;20022;-77
2024/03/13 03:17:07;;;;;;;21.70;8.05;;;10.30;99.90;;;;;;5017912;28;20022;-78
2024/03/13 03:19:37;;;;;;;19.80;7.30;;;10.30;99.90;;;;;;5016590;28;20022;-78
2024/03/13 03:22:03;;;;;;;18.35;7.43;;;10.30;99.90;;;;;;5016277;28;20136;-78
2024/03/13 03:24:32;;;;;;;20.42;6.85;;;10.30;99.90;;;;;;5016086;28;20034;-78
2024/03/13 03:26:58;;;;;;;19.40;6.95;;;10.30;99.90;;;;;;5017068;28;20041;-78
2024/03/13 03:29:24;;;;;;;20.00;7.82;;;10.30;99.90;;;;;;5016065;28;20018;-78
2024/03/13 03:31:49;;;;;;;18.25;6.32;;;10.30;99.90;;;;;;5016354;28;20429;-77
2024/03/13 03:34:16;;;;;;;20.60;7.35;;;10.30;99.90;;;;;;5016115;28;20442;-77
2024/03/13 03:36:42;;;;;;;20.73;7.07;;;10.30;99.90;;;;;;5017008;28;20466;-77
2024/03/13 03:39:14;;;;;;;21.67;7.38;;;10.30;99.90;;;;;;5016249;28;20014;-76
2024/03/13 03:41:46;;;;;;;16.67;7.35;;;10.30;99.90;;;;;;5016459;28;20053;-77
2024/03/13 03:44:12;;;;;;;19.92;6.78;;;10.40;99.90;;;;;;5015338;28;20076;-76
2024/03/13 03:46:40;;;;;;;19.00;6.90;;;10.40;99.90;;;;;;5015375;28;20022;-77
2024/03/13 03:49:08;;;;;;;20.80;7.13;;;10.40;99.90;;;;;;5015482;28;20022;-77
2024/03/13 03:51:34;;;;;;;19.77;7.57;;;10.30;99.90;;;;;;5015747;28;20092;-77
2024/03/13 03:54:00;;;;;;;20.15;7.63;;;10.40;99.90;;;;;;5016750;28;20053;-77
2024/03/13 03:56:31;;;;;;;21.40;7.70;;;10.40;99.90;;;;;;5016233;28;20018;-77
2024/03/13 03:58:57;;;;;;;20.13;7.28;;;10.40;99.90;;;;;;5016097;28;20033;-77
2024/03/13 04:01:24;;;;;;;19.13;7.90;;;10.50;99.90;;;;;;5016201;28;20029;-77
2024/03/13 04:03:51;;;;;;;19.75;8.32;;;10.50;99.90;;;;;;5016901;28;20097;-78
2024/03/13 04:06:17;;;;;;;24.10;8.40;;;10.40;99.90;;;;;;5014787;28;20026;-77
2024/03/13 04:08:46;;;;;;;26.65;8.15;;;10.40;99.90;;;;;;5014950;28;20072;-77
2024/03/13 04:11:13;;;;;;;23.40;8.38;;;10.40;99.90;;;;;;5016083;28;20022;-77
2024/03/13 04:13:39;;;;;;;25.30;7.78;;;10.40;99.90;;;;;;5016333;28;20120;-77
2024/03/13 04:16:07;;;;;;;21.50;8.15;;;10.40;99.90;;;;;;5016623;28;20026;-76
2024/03/13 04:18:33;;;;;;;23.45;9.05;;;10.40;99.90;;;;;;5015926;28;20033;-77
2024/03/13 04:21:00;;;;;;;24.98;7.00;;;10.40;99.90;;;;;;5014962;28;20022;-77
2024/03/13 04:23:29;;;;;;;25.10;8.30;;;10.40;99.90;;;;;;5015971;28;20029;-77
2024/03/13 04:25:55;;;;;;;20.25;8.27;;;10.30;99.90;;;;;;5015813;28;20551;-77
2024/03/13 04:28:20;;;;;;;23.88;8.90;;;10.40;99.90;;;;;;5016621;28;20037;-76
2024/03/13 04:30:46;;;;;;;24.45;9.18;;;10.40;99.90;;;;;;5014799;28;20022;-77
2024/03/13 04:33:13;;;;;;;21.75;7.97;;;10.40;99.90;;;;;;5014611;28;20026;-77
2024/03/13 04:35:39;;;;;;;24.38;8.15;;;10.40;99.90;;;;;;5016096;28;20030;-77
2024/03/13 04:38:05;;;;;;;23.40;7.80;;;10.40;99.90;;;;;;5014813;28;20032;-77
2024/03/13 04:40:31;;;;;;;24.88;8.25;;;10.40;99.90;;;;;;5014702;28;20018;-77
2024/03/13 04:42:57;;;;;;;26.38;8.43;;;10.40;99.90;;;;;;5015857;28;20437;-77
2024/03/13 04:45:23;;;;;;;27.92;8.60;;;10.40;99.90;;;;;;5015672;28;20042;-76
2024/03/13 04:47:49;;;;;;;25.48;8.65;;;10.40;99.90;;;;;;5015407;28;20053;-76
2024/03/13 04:50:15;;;;;;;25.17;9.15;;;10.40;99.90;;;;;;5015855;28;20032;-77
2024/03/13 04:52:43;;;;;;;21.13;9.02;;;10.40;99.90;;;;;;5015407;28;20034;-76
2024/03/13 04:55:08;;;;;;;28.52;9.52;;;10.40;99.90;;;;;;5015729;28;20021;-77
2024/03/13 04:57:34;;;;;;;30.55;9.27;;;10.40;99.90;;;;;;5015132;28;20482;-77
2024/03/13 05:00:00;;;;;;;30.92;8.00;;;10.40;99.90;;;;;;5013924;28;20393;-77
2024/03/13 05:02:29;;;;;;;24.92;9.57;;;10.40;99.90;;;;;;5015505;28;20500;-76
2024/03/13 05:04:54;;;;;;;28.40;9.40;;;10.40;99.90;;;;;;5013807;28;20030;-76
2024/03/13 05:07:22;;;;;;;26.70;9.48;;;10.30;99.90;;;;;;5013876;28;20347;-77
2024/03/13 05:09:49;;;;;;;24.77;8.45;;;10.30;99.90;;;;;;5015485;28;20025;-77
2024/03/13 05:12:15;;;;;;;26.17;8.57;;;10.30;99.90;;;;;;5013912;28;20099;-77
2024/03/13 05:14:41;;;;;;;29.50;9.73;;;10.30;99.90;;;;;;5015283;28;20022;-77
2024/03/13 05:17:09;;;;;;;26.00;9.30;;;10.30;99.90;;;;;;5013799;28;20037;-77
2024/03/13 05:19:35;;;;;;;21.35;8.13;;;;;;;;;;5014956;28;20025;-77
2024/03/13 05:22:01;;;;;;;22.95;8.35;;;10.30;99.90;;;;;;5014449;28;20177;-76
2024/03/13 05:24:26;;;;;;;25.30;8.57;;;10.30;99.90;;;;;;5013795;28;20109;-77
2024/03/13 05:26:52;;;;;;;20.75;7.75;;;10.20;99.90;;;;;;5013730;28;20030;-76
2024/03/13 05:29:18;;;;;;;24.63;7.88;;;10.20;99.90;;;;;;5014261;28;20048;-76
2024/03/13 05:31:44;;;;;;;28.88;7.72;;;10.20;99.90;;;;;;5014844;28;20108;-77
2024/03/13 05:34:09;;;;;;;24.88;8.18;;;10.30;99.90;;;;;;5015267;28;20018;-77
2024/03/13 05:36:38;;;;;;;27.95;8.35;;;10.30;99.90;;;;;;5015355;28;20493;-77
2024/03/13 05:39:12;;;;;;;20.65;7.32;;;10.30;99.90;;;;;;5014800;28;20482;-77
2024/03/13 05:41:38;;;;;;;24.10;7.50;;;10.20;99.90;;;;;;5014527;28;20033;-77
2024/03/13 05:44:04;;;;;;;22.42;6.70;;;10.20;99.90;;;;;;5014979;28;20033;-77
2024/03/13 05:46:30;;;;;;;23.80;7.13;;;10.20;99.90;;;;;;5013295;28;20100;-76
2024/03/13 05:48:55;;;;;;;21.48;8.50;;;10.20;99.90;;;;;;5013602;28;20069;-77
2024/03/13 05:51:21;;;;;;;21.40;7.05;;;10.20;99.90;;;;;;5015052;28;20541;-77
2024/03/13 05:53:47;;;;;;;26.10;7.70;;;10.20;99.90;;;;;;5015880;28;20029;-77
2024/03/13 05:56:13;;;;;;;21.13;7.03;;;10.20;99.90;;;;;;5013558;28;20033;-78
2024/03/13 05:58:41;;;;;;;31.10;8.18;;;10.20;99.90;;;;;;5014209;28;20022;-77
2024/03/13 06:01:11;;;;;;;24.15;7.85;;;10.20;99.90;;;;;;5013025;28;20153;-78
2024/03/13 06:03:36;;;;;;;22.70;7.45;;;10.20;99.90;;;;;;5014667;28;20030;-77
2024/03/13 06:06:02;;;;;;;29.83;9.02;;;10.20;99.90;;;;;;5014062;28;20029;-77
2024/03/13 06:08:30;;;;;;;29.55;7.47;;;10.20;99.90;;;;;;5014775;28;20030;-77
2024/03/13 06:10:56;;;;;;;27.07;8.10;;;;;;;;;;5013086;28;20022;-77
2024/03/13 06:13:22;;;;;;;25.15;7.75;;;10.20;99.90;;;;;;5014318;28;20347;-77
2024/03/13 06:15:48;;;;;;;28.05;7.07;;;10.20;99.90;;;;;;5013005;28;20022;-77
2024/03/13 06:18:14;;;;;;;15.95;5.50;;;10.20;99.90;;;;;;5013027;28;20489;-77
2024/03/13 06:20:40;;;;;;;22.83;5.72;;;10.20;99.90;;;;;;5014184;28;20033;-77
2024/03/13 06:23:06;;;;;;;18.95;6.38;;;10.20;99.90;;;;;;5014076;28;20022;-77
2024/03/13 06:25:38;;;;;;;25.52;7.03;;;10.20;99.90;;;;;;5012762;28;20061;-77
2024/03/13 06:29:56;;;;;;;21.65;4.70;;;10.20;99.90;;;;;;5013083;28;20080;-77
2024/03/13 06:30:51;;;;;;;23.17;7.10;;;10.20;99.90;;;;;;5013864;28;20577;-78
2024/03/13 06:33:17;;;;;;;17.63;4.75;;;10.20;99.90;;;;;;5015218;28;20019;-77
2024/03/13 06:35:43;;;;;;;24.73;5.28;;;10.20;99.90;;;;;;5014561;28;20041;-77
2024/03/13 06:38:08;;;;;;;27.25;5.10;;;10.10;99.90;;;;;;5014395;28;20022;-78
2024/03/13 06:40:42;;;;;;;24.27;4.90;;;10.20;99.90;;;;;;5014217;28;20033;-77
2024/03/13 06:43:08;;;;;;;27.73;5.80;;;10.20;99.90;;;;;;5017242;28;20026;-77
2024/03/13 06:45:34;;;;;;;17.52;4.55;;;10.20;99.90;;;;;;5017950;28;20038;-77
2024/03/13 06:48:00;;;;;;;22.27;3.65;;;10.20;99.90;;;;;;5018997;28;20022;-77
2024/03/13 06:50:27;;;;;;;23.27;4.25;;;10.20;99.90;;;;;;5017646;28;20030;-77
2024/03/13 06:52:53;;;;;;;20.42;4.30;;;10.20;99.90;;;;;;5019633;28;20170;-77
2024/03/13 06:55:19;;;;;;;15.15;3.60;;;10.20;99.90;;;;;;5019083;28;20065;-77
2024/03/13 06:57:44;;;;;;;18.80;3.78;;;10.30;99.90;;;;;;5017728;28;20018;-78
2024/03/13 07:00:10;;;;;;;20.67;3.90;;;10.20;99.90;;;;;;5018178;28;20052;-76
2024/03/13 07:02:37;;;;;;;15.07;3.65;;;10.30;99.90;;;;;;5019100;28;20015;-77
2024/03/13 07:05:04;;;;;;;16.73;3.70;;;10.30;99.90;;;;;;5019247;28;20014;-77
2024/03/13 07:07:30;;;;;;;14.18;3.63;;;10.30;99.90;;;;;;5017884;28;20052;-77
2024/03/13 07:09:55;;;;;;;12.27;2.65;;;10.20;99.90;;;;;;5018796;28;20026;-77
2024/03/13 07:12:24;;;;;;;19.05;3.15;;;10.30;99.90;;;;;;5017079;28;20033;-77
2024/03/13 07:14:53;;;;;;;12.77;3.33;;;10.30;99.90;;;;;;5016148;28;20018;-77
2024/03/13 07:17:28;;;;;;;19.25;2.78;;;10.40;99.90;;;;;;5017708;28;20025;-80
2024/03/13 07:19:55;;;;;;;17.42;3.45;;;;;;;;;;5022824;28;20018;-80
2024/03/13 07:22:21;;;;;;;16.73;4.03;;;10.30;99.90;;;;;;5024909;28;20036;-82
2024/03/13 07:24:47;;;;;;;14.70;2.83;;;10.40;99.90;;;;;;5023508;28;20022;-81
2024/03/13 07:27:13;;;;;;;13.35;2.40;;;;;;;;;;5025441;28;20022;-80
2024/03/13 07:29:39;;;;;;;12.70;2.90;;;10.50;99.90;;;;;;5024875;28;20030;-82
2024/03/13 07:32:04;;;;;;;9.30;2.90;;;10.50;99.90;;;;;;5024591;28;20033;-81
2024/03/13 07:34:31;;;;;;;18.15;3.28;;;;;;;;;;5023626;28;20026;-80
2024/03/13 07:36:58;;;;;;;15.57;3.20;;;;;;;;;;5023678;28;20060;-82
2024/03/13 07:39:25;;;;;;;17.17;3.08;;;10.50;99.90;;;;;;5025152;28;20025;-83
2024/03/13 07:41:52;;;;;;;19.40;4.03;;;;;;;;;;5024898;28;20053;-82
2024/03/13 07:44:18;;;;;;;13.40;2.70;;;10.50;99.90;;;;;;5020127;28;20029;-78
2024/03/13 07:46:43;;;;;;;14.63;2.75;;;10.40;99.90;;;;;;5017455;28;20473;-78
2024/03/13 07:49:09;;;;;;;13.50;2.25;;;10.50;99.90;;;;;;5017237;28;20017;-78
2024/03/13 07:51:34;;;;;;;13.02;2.35;;;10.50;99.90;;;;;;5016821;28;20497;-79
2024/03/13 07:54:01;;;;;;;11.27;2.83;;;10.50;99.90;;;;;;5016140;28;20516;-78
2024/03/13 07:56:27;;;;;;;21.45;3.35;;;10.60;99.90;;;;;;5018336;28;20041;-79
2024/03/13 07:58:53;;;;;;;16.88;3.80;;;10.60;99.90;;;;;;5017032;28;20034;-78
2024/03/13 08:01:19;;;;;;;12.73;2.85;;;10.50;99.90;;;;;;5018915;28;20097;-79
2024/03/13 08:03:45;;;;;;;14.30;3.42;;;10.60;99.90;;;;;;5021505;28;20473;-81
2024/03/13 08:06:11;;;;;;;13.40;2.72;;;;;;;;;;5019559;28;20037;-80
2024/03/13 08:08:37;;;;;;;21.08;3.55;;;10.60;99.90;;;;;;5017869;28;20029;-79
2024/03/13 08:11:04;;;;;;;21.50;4.22;;;10.60;99.90;;;;;;5019420;28;20054;-80
2024/03/13 08:13:32;;;;;;;21.58;3.10;;;10.60;99.90;;;;;;5018038;28;20379;-79
2024/03/13 08:15:58;;;;;;;18.95;3.85;;;;;;;;;;5017947;28;20026;-79
2024/03/13 08:18:27;;;;;;;16.23;3.37;;;10.60;99.90;;;;;;5017598;28;20062;-79
2024/03/13 08:20:54;;;;;;;21.63;3.70;;;10.60;99.90;;;;;;5017451;28;20018;-80
2024/03/13 08:23:20;;;;;;;18.17;3.65;;;10.60;99.90;;;;;;5016930;28;20076;-80
2024/03/13 08:25:45;;;;;;;19.27;3.13;;;10.60;99.90;;;;;;5017882;28;20033;-80
2024/03/13 08:28:11;;;;;;;16.35;4.05;;;10.60;99.90;;;;;;5017225;28;20038;-80
2024/03/13 08:30:36;;;;;;;14.70;4.35;;;10.60;99.90;;;;;;5015586;28;20030;-79
2024/03/13 08:33:02;;;;;;;24.05;4.80;;;10.60;99.90;;;;;;5017265;28;20080;-79
2024/03/13 08:35:28;;;;;;;18.20;4.70;;;10.60;99.90;;;;;;5018534;28;20029;-79
2024/03/13 08:37:59;;;;;;;18.00;5.05;;;10.70;99.90;;;;;;5016367;28;20026;-79
2024/03/13 08:40:28;;;;;;;25.35;6.57;;;10.70;99.90;;;;;;5016098;28;20013;-79
2024/03/13 08:42:58;;;;;;;18.67;5.05;;;10.70;99.90;;;;;;5016979;28;20014;-79
2024/03/13 08:45:25;;;;;;;21.35;5.05;;;10.70;99.90;;;;;;5016738;28;20029;-79
2024/03/13 08:47:55;;;;;;;19.35;5.35;;;10.70;99.90;;;;;;5016273;28;20022;-79
2024/03/13 08:50:21;;;;;;;22.85;5.03;;;10.80;99.90;;;;;;5014795;28;20507;-79
2024/03/13 08:52:47;;;;;;;20.05;6.32;;;;;;;;;;5018037;28;20022;-79
2024/03/13 08:55:17;;;;;;;21.05;6.53;;;10.90;99.90;;;;;;5014673;28;20029;-79
2024/03/13 08:57:44;;;;;;;22.05;4.90;;;10.70;99.90;;;;;;5016033;28;20022;-79
2024/03/13 09:00:11;;;;;;;17.33;5.40;;;10.90;99.90;;;;;;5015442;28;20022;-79
2024/03/13 09:02:36;;;;;;;26.17;6.18;;;10.90;99.90;;;;;;5016630;28;20014;-79
2024/03/13 09:05:03;;;;;;;22.20;7.07;;;10.90;99.90;;;;;;5014809;28;20029;-79
2024/03/13 09:07:30;;;;;;;14.93;5.40;;;11.00;99.90;;;;;;5014500;28;20581;-79
2024/03/13 09:09:56;;;;;;;24.70;6.03;;;11.10;99.90;;;;;;5014399;28;20018;-79
2024/03/13 09:12:22;;;;;;;21.95;6.32;;;11.10;99.90;;;;;;5013951;28;20038;-80
2024/03/13 09:14:50;;;;;;;22.50;5.55;;;11.10;99.90;;;;;;5016102;28;20026;-79
2024/03/13 09:17:16;;;;;;;21.95;7.03;;;11.10;99.90;;;;;;5014694;28;20563;-79
2024/03/13 09:19:41;;;;;;;18.80;5.72;;;11.10;99.90;;;;;;5014132;28;20014;-79
2024/03/13 09:22:11;;;;;;;18.40;5.63;;;11.10;99.90;;;;;;5015438;28;20053;-78
2024/03/13 09:24:38;;;;;;;16.15;3.83;;;11.10;99.90;;;;;;5014722;28;20496;-79
2024/03/13 09:27:04;;;;;;;20.15;4.45;;;11.10;99.90;;;;;;5016816;28;20018;-79
2024/03/13 09:29:31;;;;;;;28.00;6.10;;;11.10;99.90;;;;;;5015105;28;20061;-79
2024/03/13 09:31:57;;;;;;;20.70;3.72;;;11.10;99.90;;;;;;5015440;28;20053;-78
2024/03/13 09:34:23;;;;;;;13.10;4.45;;;11.10;99.90;;;;;;5014481;28;20022;-79
2024/03/13 09:36:52;;;;;;;10.57;2.50;;;11.10;99.90;;;;;;5014654;28;20040;-79
2024/03/13 09:39:18;;;;;;;11.25;2.10;;;11.20;99.90;;;;;;5015855;28;20021;-79
2024/03/13 09:41:45;;;;;;;15.40;2.72;;;11.20;99.90;;;;;;5014592;28;20022;-79
2024/03/13 09:44:11;;;;;;;13.70;2.35;;;11.30;99.90;;;;;;5014654;28;20032;-79
2024/03/13 09:46:39;;;;;;;9.13;1.63;;;11.30;99.90;;;;;;5016262;28;20025;-78
2024/03/13 09:49:06;;;;;;;9.40;2.60;;;11.40;99.90;;;;;;5014860;28;20034;-78
2024/03/13 09:51:34;;;;;;;8.32;1.90;;;11.40;99.90;;;;;;5015687;28;20022;-77
2024/03/13 09:54:02;;;;;;;11.70;1.67;;;11.50;99.90;;;;;;5016014;28;20029;-78
2024/03/13 09:56:29;;;;;;;6.78;1.02;;;11.50;99.90;;;;;;5014497;28;20037;-78
2024/03/13 09:58:56;;;;;;;8.77;1.70;;;11.50;99.90;;;;;;5015306;28;20072;-78
2024/03/13 10:01:34;;;;;;;6.72;1.45;;;11.60;99.90;;;;;;5015889;28;20021;-78
2024/03/13 10:04:10;;;;;;;4.90;1.25;;;11.50;99.90;;;;;;5017626;28;20080;-79
2024/03/13 10:06:41;;;;;;;8.82;0.93;;;11.60;99.90;;;;;;5014799;28;20473;-79
2024/03/13 10:09:12;;;;;;;6.35;1.80;;;11.60;99.90;;;;;;5014668;28;20092;-79
2024/03/13 10:11:45;;;;;;;6.32;1.55;;;11.60;99.90;;;;;;5015223;28;20470;-78
2024/03/13 10:14:12;;;;;;;6.43;2.45;;;11.60;99.90;;;;;;5014674;28;20039;-79
2024/03/13 10:16:42;;;;;;;8.95;1.55;;;11.60;99.90;;;;;;5014697;28;20026;-79
2024/03/13 10:19:12;;;;;;;9.15;1.20;;;11.70;99.90;;;;;;5014315;28;20026;-78
2024/03/13 10:21:41;;;;;;;7.43;1.67;;;11.80;99.90;;;;;;5014486;28;20048;-79
2024/03/13 10:24:08;;;;;;;13.13;2.47;;;11.70;99.90;;;;;;5014646;28;20393;-79
2024/03/13 10:26:40;;;;;;;12.15;1.80;;;11.80;99.90;;;;;;5014369;28;20018;-79
2024/03/13 10:29:08;;;;;;;10.48;1.48;;;11.70;99.90;;;;;;5014339;28;20026;-79
2024/03/13 10:31:36;;;;;;;7.50;1.77;;;11.80;99.90;;;;;;5015392;28;20022;-79
2024/03/13 10:34:02;;;;;;;10.40;1.95;;;11.70;99.90;;;;;;5017571;28;20120;-80
2024/03/13 10:36:29;;;;;;;10.63;2.08;;;11.80;99.90;;;;;;5017499;28;20029;-80
2024/03/13 10:39:01;;;;;;;9.93;2.63;;;11.90;99.90;;;;;;5015326;28;20095;-79
2024/03/13 10:41:30;;;;;;;15.98;2.35;;;11.90;99.90;;;;;;5015862;28;20084;-80
2024/03/13 10:43:56;;;;;;;17.30;2.92;;;11.90;99.90;;;;;;5018245;28;20063;-79
2024/03/13 10:46:23;;;;;;;12.25;1.90;;;11.90;99.90;;;;;;5018091;28;20525;-80
2024/03/13 10:48:49;;;;;;;11.75;3.13;;;11.80;99.90;;;;;;5018386;28;20421;-80
2024/03/13 10:51:14;;;;;;;12.43;1.88;;;11.80;99.90;;;;;;5017181;28;20040;-80
2024/03/13 10:53:42;;;;;;;10.55;2.28;;;11.70;99.90;;;;;;5017695;28;20081;-79
2024/03/13 10:56:15;;;;;;;9.73;1.65;;;11.90;99.90;;;;;;5016503;28;20052;-79
2024/03/13 10:58:46;;;;;;;10.27;2.67;;;11.60;99.90;;;;;;5016717;28;20156;-79
2024/03/13 11:01:21;;;;;;;8.68;1.98;;;11.60;99.90;;;;;;5016524;28;20018;-80
2024/03/13 11:03:59;;;;;;;13.18;1.80;;;11.60;99.90;;;;;;5018564;28;20548;-80
2024/03/13 11:06:27;;;;;;;13.27;2.42;;;11.60;99.90;;;;;;5017311;28;20014;-79
2024/03/13 11:08:54;;;;;;;9.57;1.17;;;11.70;99.90;;;;;;5016296;28;20022;-79
2024/03/13 11:11:23;;;;;;;8.98;0.88;;;11.70;99.90;;;;;;5016825;28;20040;-79
2024/03/13 11:13:54;;;;;;;6.60;0.93;;;11.70;99.90;;;;;;5016079;28;20033;-79
2024/03/13 11:16:23;;;;;;;8.60;0.93;;;11.80;99.90;;;;;;5016502;28;20045;-79
2024/03/13 11:18:55;;;;;;;10.35;1.73;;;11.80;99.90;;;;;;5016550;28;20474;-80
2024/03/13 11:21:24;;;;;;;9.23;0.98;;;11.80;99.90;;;;;;5017577;28;20018;-80
2024/03/13 11:24:05;;;;;;;3.70;0.40;;;12.00;99.90;;;;;;5015404;28;20037;-80
2024/03/13 11:26:36;;;;;;;10.75;0.98;;;12.00;99.90;;;;;;5016377;28;20022;-80
2024/03/13 11:29:05;;;;;;;12.38;0.77;;;12.00;99.90;;;;;;5019498;28;20116;-80
2024/03/13 11:31:33;;;;;;;12.93;1.27;;;12.00;99.90;;;;;;5019938;28;20033;-80
2024/03/13 11:34:01;;;;;;;6.68;1.30;;;12.00;99.90;;;;;;5019551;28;20366;-80
2024/03/13 11:36:28;;;;;;;11.55;0.82;;;11.90;99.90;;;;;;5019735;28;20112;-80
2024/03/13 11:38:56;;;;;;;5.85;0.82;;;12.00;99.90;;;;;;5019285;28;20053;-80
2024/03/13 11:41:22;;;;;;;6.55;0.80;;;12.00;99.90;;;;;;5019715;28;20105;-80
2024/03/13 11:43:48;;;;;;;7.15;0.30;;;12.00;99.90;;;;;;5020375;28;20026;-79
2024/03/13 11:46:16;;;;;;;9.43;0.60;;;12.10;99.90;;;;;;5020970;28;20100;-79
2024/03/13 11:48:42;;;;;;;1.67;0.60;;;12.10;99.90;;;;;;5020020;28;20026;-80
2024/03/13 11:51:08;;;;;;;9.07;0.50;;;12.00;99.90;;;;;;5019857;28;20113;-79
2024/03/13 11:53:34;;;;;;;6.28;0.38;;;12.00;99.90;;;;;;5019409;28;20021;-80
2024/03/13 11:56:05;;;;;;;6.43;0.65;;;12.00;99.90;;;;;;5019679;28;20076;-80
2024/03/13 11:58:33;;;;;;;5.03;0.40;;;11.90;99.90;;;;;;5020974;28;20022;-80
2024/03/13 12:00:59;;;;;;;3.40;0.22;;;11.90;99.90;;;;;;5019529;28;20018;-80
2024/03/13 12:03:42;;;;;;;6.03;0.45;;;11.90;99.90;;;;;;5019374;28;20490;-79
2024/03/13 12:06:23;;;;;;;5.20;0.15;;;11.80;99.90;;;;;;5020334;28;20117;-80
2024/03/13 12:08:52;;;;;;;2.08;0.17;;;11.90;99.90;;;;;;5018630;28;20036;-80
2024/03/13 12:11:18;;;;;;;7.97;0.38;;;11.90;99.90;;;;;;5018290;28;20181;-80
2024/03/13 12:13:45;;;;;;;3.25;0.47;;;11.90;99.90;;;;;;5018499;28;20038;-80
2024/03/13 12:16:14;;;;;;;8.38;0.57;;;11.80;99.90;;;;;;5019560;28;20030;-80
2024/03/13 12:18:49;;;;;;;3.72;0.85;;;11.80;99.90;;;;;;5019960;28;20022;-80
2024/03/13 12:21:16;;;;;;;4.13;0.30;;;11.80;99.90;;;;;;5020034;28;20025;-80
2024/03/13 12:23:41;;;;;;;7.55;1.00;;;11.80;99.90;;;;;;5018904;28;20104;-80
2024/03/13 12:26:07;;;;;;;3.47;0.22;;;11.80;99.90;;;;;;5017852;28;20088;-80
2024/03/13 12:28:33;;;;;;;7.22;0.30;;;11.80;99.90;;;;;;5018255;28;20030;-80
2024/03/13 12:31:00;;;;;;;2.38;0.20;;;11.90;99.90;;;;;;5020145;28;20386;-80
2024/03/13 12:33:26;;;;;;;3.75;0.13;;;12.00;99.90;;;;;;5018792;28;20022;-79
2024/03/13 12:36:02;;;;;;;0.82;0.13;;;11.90;99.90;;;;;;5016053;28;20112;-79
2024/03/13 12:38:39;;;;;;;12.35;0.77;;;11.90;99.90;;;;;;5016878;28;20026;-79
2024/03/13 12:41:07;;;;;;;4.35;0.40;;;11.90;99.90;;;;;;5016565;28;20010;-78
2024/03/13 12:43:33;;;;;;;4.85;0.10;;;11.90;99.90;;;;;;5016226;28;20022;-79
2024/03/13 12:46:02;;;;;;;4.05;0.10;;;12.00;99.90;;;;;;5016923;28;20026;-78
2024/03/13 12:48:31;;;;;;;3.47;0.10;;;12.10;99.90;;;;;;5014691;28;20100;-78
2024/03/13 12:51:08;;;;;;;2.47;0.38;;;12.20;99.90;;;;;;5014938;28;20026;-79
2024/03/13 12:53:33;;;;;;;2.92;0.32;;;12.10;99.90;;;;;;5014742;28;20030;-78
2024/03/13 12:56:00;;;;;;;3.30;0.03;;;12.20;99.90;;;;;;5015684;28;20366;-78
2024/03/13 12:58:29;;;;;;;1.27;0.08;;;12.10;99.90;;;;;;5015342;28;20021;-78
2024/03/13 13:00:56;;;;;;;2.47;0.10;;;12.00;99.90;;;;;;5016130;28;20040;-79
2024/03/13 13:03:22;;;;;;;2.22;0.00;;;12.10;99.90;;;;;;5014764;28;20389;-79
2024/03/13 13:05:49;;;;;;;1.17;0.00;;;12.10;99.90;;;;;;5014130;28;20109;-78
2024/03/13 13:08:14;;;;;;;7.20;0.10;;;12.00;99.90;;;;;;5016692;28;20026;-79